Time;durP1;ratioP1;P1;durP2;ratioP2;P2;SDS_P1;SDS_P2;PMS_P1;PMS_P2;Temp;Humidity;BMP_temperature;BMP_pressure;BME280_temperature;BME280_humidity;BME280_pressure;Samples;Min_cycle;Max_cycle;Signal;HPM_P1;HPM_P2
2023/02/27 00:01:24;;;;;;;4.40;4.00;;;;;;;;;;105414;1250;61679;-68
2023/02/27 00:03:52;;;;;;;4.70;4.20;;;;;;;;;;105265;1256;61673;-64
2023/02/27 00:06:21;;;;;;;4.90;4.40;;;;;;;;;;105457;1252;62016;-67
2023/02/27 00:08:57;;;;;;;5.20;4.70;;;;;;;;;;105334;1266;61677;-63
2023/02/27 00:11:26;;;;;;;4.80;4.30;;;;;;;;;;105407;1267;61698;-63
2023/02/27 00:13:55;;;;;;;5.00;4.60;;;;;;;;;;105302;1247;61704;-63
2023/02/27 00:16:23;;;;;;;4.80;4.30;;;;;;;;;;105434;1253;61689;-64
2023/02/27 00:18:52;;;;;;;5.10;4.60;;;;;;;;;;105434;1252;61951;-64
2023/02/27 00:21:23;;;;;;;5.50;5.00;;;;;;;;;;105287;1249;61628;-64
2023/02/27 00:23:52;;;;;;;6.70;4.70;;;;;;;;;;105281;1252;61697;-63
2023/02/27 00:26:23;;;;;;;5.20;4.70;;;;;;;;;;105416;1249;61763;-64
2023/02/27 00:28:52;;;;;;;4.70;4.20;;;;;;;;;;105427;1253;61696;-62
2023/02/27 00:31:21;;;;;;;5.00;4.60;;;;;;;;;;105449;1252;61616;-62
2023/02/27 00:33:50;;;;;;;4.80;4.40;;;;;;;;;;105429;1248;61679;-62
2023/02/27 00:36:18;;;;;;;4.70;4.30;;;;;;;;;;105333;1248;61689;-63
2023/02/27 00:38:46;;;;;;;5.00;4.10;;;;;;;;;;105513;1251;61672;-63
2023/02/27 00:41:14;;;;;;;4.00;3.70;;;;;;;;;;105350;1250;61730;-63
2023/02/27 00:43:42;;;;;;;3.60;3.30;;;;;;;;;;105432;1252;61582;-65
2023/02/27 00:46:12;;;;;;;3.40;3.10;;;;;;;;;;105427;1251;61690;-65
2023/02/27 00:48:44;;;;;;;3.60;3.30;;;;;;;;;;104910;1262;61752;-63
2023/02/27 00:51:12;;;;;;;3.80;3.50;;;;;;;;;;105344;1249;61707;-63
2023/02/27 00:53:40;;;;;;;3.60;3.20;;;;;;;;;;105075;1252;61685;-64
2023/02/27 00:56:08;;;;;;;3.40;3.00;;;;;;;;;;105426;1254;61682;-63
2023/02/27 00:58:37;;;;;;;3.60;3.30;;;;;;;;;;105500;1252;61702;-63
2023/02/27 01:01:05;;;;;;;3.40;3.10;;;;;;;;;;104931;1263;61719;-63
2023/02/27 01:03:35;;;;;;;3.90;3.50;;;;;;;;;;105242;1256;61140;-64
2023/02/27 01:06:03;;;;;;;4.70;3.70;;;;;;;;;;105582;1253;61682;-64
2023/02/27 01:08:31;;;;;;;4.50;4.10;;;;;;;;;;105432;1248;61676;-63
2023/02/27 01:11:00;;;;;;;4.00;3.70;;;;;;;;;;105246;1268;60873;-63
2023/02/27 01:13:32;;;;;;;4.90;4.40;;;;;;;;;;105592;1253;61625;-63
2023/02/27 01:16:00;;;;;;;5.90;4.00;;;;;;;;;;105321;1252;61703;-63
2023/02/27 01:18:29;;;;;;;4.70;4.00;;;;;;;;;;105430;1260;61092;-65
2023/02/27 01:20:57;;;;;;;4.60;4.20;;;;;;;;;;105330;1253;61577;-63
2023/02/27 01:23:26;;;;;;;5.70;4.20;;;;;;;;;;105228;1251;61737;-63
2023/02/27 01:25:54;;;;;;;4.10;3.70;;;;;;;;;;105306;1266;61823;-63
2023/02/27 01:28:22;;;;;;;5.20;4.20;;;;;;;;;;105325;1268;61230;-64
2023/02/27 01:30:51;;;;;;;4.20;3.70;;;;;;;;;;105128;1263;61395;-64
2023/02/27 01:33:19;;;;;;;4.40;4.00;;;;;;;;;;105291;1260;61932;-63
2023/02/27 01:35:51;;;;;;;4.50;4.00;;;;;;;;;;105361;1253;61901;-63
2023/02/27 01:38:20;;;;;;;4.60;4.10;;;;;;;;;;105442;1263;61702;-63
2023/02/27 01:40:48;;;;;;;4.20;3.80;;;;;;;;;;105518;1247;61749;-64
2023/02/27 01:43:17;;;;;;;4.90;3.90;;;;;;;;;;105035;1252;61656;-63
2023/02/27 01:45:47;;;;;;;4.60;4.10;;;;;;;;;;105024;1255;61526;-64
2023/02/27 01:48:33;;;;;;;3.80;3.50;;;;;;;;;;105113;1269;61229;-64
2023/02/27 01:51:03;;;;;;;4.10;3.70;;;;;;;;;;104945;1263;61679;-64
2023/02/27 01:53:32;;;;;;;4.00;3.70;;;;;;;;;;105338;1250;61784;-64
2023/02/27 01:56:09;;;;;;;4.50;4.10;;;;;;;;;;105362;1253;62253;-62
2023/02/27 01:58:39;;;;;;;3.70;3.40;;;;;;;;;;105030;1249;61669;-64
2023/02/27 02:01:07;;;;;;;4.30;3.80;;;;;;;;;;105182;1248;61664;-64
2023/02/27 02:03:42;;;;;;;3.90;3.50;;;;;;;;;;105301;1249;61705;-64
2023/02/27 02:06:11;;;;;;;3.90;3.40;;;;;;;;;;105091;1256;61710;-65
2023/02/27 02:08:41;;;;;;;3.90;3.50;;;;;;;;;;104925;1257;61681;-65
2023/02/27 02:11:11;;;;;;;3.70;3.40;;;;;;;;;;105070;1269;61753;-64
2023/02/27 02:13:39;;;;;;;4.00;3.30;;;;;;;;;;105372;1262;61083;-63
2023/02/27 02:16:11;;;;;;;3.80;3.50;;;;;;;;;;105395;1260;61674;-64
2023/02/27 02:18:47;;;;;;;4.20;3.70;;;;;;;;;;105541;1248;61596;-64
2023/02/27 02:21:24;;;;;;;4.20;3.90;;;;;;;;;;105139;1260;61731;-64
2023/02/27 02:23:54;;;;;;;4.90;3.90;;;;;;;;;;105453;1248;61697;-64
2023/02/27 02:26:26;;;;;;;4.00;3.50;;;;;;;;;;105620;1252;61698;-69
2023/02/27 02:29:09;;;;;;;5.60;3.70;;;;;;;;;;105337;1253;61709;-66
2023/02/27 02:31:41;;;;;;;4.60;4.10;;;;;;;;;;105441;1258;61717;-66
2023/02/27 02:34:13;;;;;;;4.20;3.80;;;;;;;;;;105512;1252;61681;-67
2023/02/27 02:36:43;;;;;;;4.30;3.90;;;;;;;;;;105569;1251;61705;-67
2023/02/27 02:39:32;;;;;;;3.90;3.50;;;;;;;;;;105667;1253;61723;-67
2023/02/27 02:42:19;;;;;;;5.50;4.20;;;;;;;;;;105058;1253;61864;-67
2023/02/27 02:44:57;;;;;;;5.00;4.50;;;;;;;;;;105460;1267;61801;-64
2023/02/27 02:47:25;;;;;;;;;;;;;;;;;;105124;1264;61727;-65
2023/02/27 02:50:02;;;;;;;4.60;4.10;;;;;;;;;;105528;1251;61040;-64
2023/02/27 02:52:58;;;;;;;5.00;4.50;;;;;;;;;;105304;1253;61702;-65
2023/02/27 02:55:31;;;;;;;4.40;4.00;;;;;;;;;;105448;1251;61736;-64
2023/02/27 02:58:14;;;;;;;4.80;4.30;;;;;;;;;;105463;1248;61701;-64
2023/02/27 03:00:53;;;;;;;4.60;4.10;;;;;;;;;;104955;1264;61708;-66
2023/02/27 03:03:24;;;;;;;4.90;4.40;;;;;;;;;;104718;1260;61680;-66
2023/02/27 03:05:58;;;;;;;4.70;4.10;;;;;;;;;;105358;1264;61070;-66
2023/02/27 03:08:30;;;;;;;4.50;4.10;;;;;;;;;;105432;1251;61564;-65
2023/02/27 03:11:00;;;;;;;4.30;3.90;;;;;;;;;;105467;1248;61707;-66
2023/02/27 03:13:28;;;;;;;4.50;4.10;;;;;;;;;;105192;1267;61669;-66
2023/02/27 03:16:17;;;;;;;5.10;4.70;;;;;;;;;;105001;1254;61743;-66
2023/02/27 03:18:50;;;;;;;5.20;4.30;;;;;;;;;;105537;1264;61689;-65
2023/02/27 03:21:23;;;;;;;4.70;4.30;;;;;;;;;;105409;1249;61681;-66
2023/02/27 03:23:52;;;;;;;5.80;4.60;;;;;;;;;;105275;1248;61707;-67
2023/02/27 03:26:22;;;;;;;5.20;4.70;;;;;;;;;;105068;1257;61686;-66
2023/02/27 03:28:54;;;;;;;5.10;4.50;;;;;;;;;;105504;1248;61699;-66
2023/02/27 03:31:41;;;;;;;4.60;4.20;;;;;;;;;;105170;1263;61673;-66
2023/02/27 03:34:26;;;;;;;4.90;4.40;;;;;;;;;;105125;1253;61704;-67
2023/02/27 03:36:55;;;;;;;5.00;4.30;;;;;;;;;;105437;1248;61717;-66
2023/02/27 03:39:23;;;;;;;4.60;4.20;;;;;;;;;;105340;1267;61692;-65
2023/02/27 03:42:11;;;;;;;5.00;4.50;;;;;;;;;;105250;1269;61047;-63
2023/02/27 03:45:25;;;;;;;4.40;4.00;;;;;;;;;;105009;1255;61717;-64
2023/02/27 03:47:53;;;;;;;4.20;3.80;;;;;;;;;;105382;1252;61680;-64
2023/02/27 03:50:22;;;;;;;4.10;3.70;;;;;;;;;;105268;1248;61695;-64
2023/02/27 03:52:50;;;;;;;4.70;4.30;;;;;;;;;;105276;1261;60995;-64
2023/02/27 03:55:27;;;;;;;4.10;3.80;;;;;;;;;;105401;1250;61705;-64
2023/02/27 03:57:55;;;;;;;4.50;4.10;;;;;;;;;;104901;1254;61696;-65
2023/02/27 04:00:23;;;;;;;4.30;3.90;;;;;;;;;;105136;1264;61567;-65
2023/02/27 04:02:53;;;;;;;4.60;4.20;;;;;;;;;;105039;1253;61740;-64
2023/02/27 04:05:24;;;;;;;4.50;4.10;;;;;;;;;;105477;1250;61806;-65
2023/02/27 04:08:11;;;;;;;4.40;4.00;;;;;;;;;;105387;1251;61618;-66
2023/02/27 04:10:43;;;;;;;4.20;3.80;;;;;;;;;;105343;1267;61608;-66
2023/02/27 04:13:34;;;;;;;3.90;3.60;;;;;;;;;;105465;1247;61693;-66
2023/02/27 04:16:22;;;;;;;4.20;3.80;;;;;;;;;;105298;1269;61670;-67
2023/02/27 04:19:09;;;;;;;4.20;3.90;;;;;;;;;;105420;1248;61698;-72
2023/02/27 04:21:42;;;;;;;4.60;4.10;;;;;;;;;;105387;1260;61613;-63
2023/02/27 04:24:22;;;;;;;4.50;4.00;;;;;;;;;;105296;1248;61682;-63
2023/02/27 04:26:53;;;;;;;4.50;4.10;;;;;;;;;;105296;1267;63338;-63
2023/02/27 04:29:44;;;;;;;4.40;4.00;;;;;;;;;;105507;1263;61806;-63
2023/02/27 04:32:18;;;;;;;4.10;3.70;;;;;;;;;;105034;1252;61759;-62
2023/02/27 04:36:20;;;;;;;4.80;4.30;;;;;;;;;;102079;1291;599736;-62
2023/02/27 04:38:50;;;;;;;5.00;4.40;;;;;;;;;;104147;1267;60184;-62
2023/02/27 04:41:51;;;;;;;4.70;4.20;;;;;;;;;;104389;1265;60173;-62
2023/02/27 04:44:19;;;;;;;6.40;4.30;;;;;;;;;;103885;1268;60280;-62
2023/02/27 04:46:48;;;;;;;4.60;4.20;;;;;;;;;;104172;1263;60227;-63
2023/02/27 04:49:20;;;;;;;4.80;4.30;;;;;;;;;;104127;1265;203943;-63
2023/02/27 04:52:02;;;;;;;5.40;4.60;;;;;;;;;;104333;1261;60279;-64
2023/02/27 04:54:36;;;;;;;6.00;4.50;;;;;;;;;;105277;1251;60239;-63
2023/02/27 04:57:09;;;;;;;5.20;4.50;;;;;;;;;;105289;1248;60177;-66
2023/02/27 04:59:38;;;;;;;4.90;4.20;;;;;;;;;;105491;1248;60169;-68
2023/02/27 05:02:09;;;;;;;5.30;4.80;;;;;;;;;;105286;1247;60881;-68
2023/02/27 05:04:39;;;;;;;6.10;4.70;;;;;;;;;;105370;1259;60661;-68
2023/02/27 05:07:08;;;;;;;5.30;4.60;;;;;;;;;;105351;1248;60884;-67
2023/02/27 05:09:40;;;;;;;5.60;4.80;;;;;;;;;;105402;1248;60866;-68
2023/02/27 05:12:24;;;;;;;4.90;4.40;;;;;;;;;;105333;1267;60869;-67
2023/02/27 05:15:13;;;;;;;5.70;4.50;;;;;;;;;;105442;1254;60898;-69
2023/02/27 05:18:07;;;;;;;4.70;4.30;;;;;;;;;;105376;1251;60939;-66
2023/02/27 05:20:55;;;;;;;5.30;4.70;;;;;;;;;;105177;1263;60885;-68
2023/02/27 05:23:32;;;;;;;4.80;4.40;;;;;;;;;;105172;1254;60950;-70
2023/02/27 05:26:11;;;;;;;5.70;5.10;;;;;;;;;;105366;1251;60861;-63
2023/02/27 05:28:47;;;;;;;4.50;4.10;;;;;;;;;;105383;1248;60808;-66
2023/02/27 05:31:22;;;;;;;5.00;4.50;;;;;;;;;;105605;1254;60793;-66
2023/02/27 05:33:54;;;;;;;5.00;4.40;;;;;;;;;;105392;1251;60731;-66
2023/02/27 05:36:54;;;;;;;5.20;4.70;;;;;;;;;;105006;1251;60859;-66
2023/02/27 05:39:23;;;;;;;4.80;4.00;;;;;;;;;;104763;1253;61414;-67
2023/02/27 05:41:59;;;;;;;5.00;4.50;;;;;;;;;;104658;1272;60892;-68
2023/02/27 05:44:34;;;;;;;5.60;4.70;;;;;;;;;;105151;1251;60876;-67
2023/02/27 05:47:09;;;;;;;4.90;4.00;;;;;;;;;;105139;1249;60901;-67
2023/02/27 05:49:42;;;;;;;5.20;4.70;;;;;;;;;;105022;1265;61250;-65
2023/02/27 05:52:11;;;;;;;4.90;4.40;;;;;;;;;;105102;1249;61212;-71
2023/02/27 05:54:42;;;;;;;5.10;4.70;;;;;;;;;;104785;1256;60882;-66
2023/02/27 05:57:11;;;;;;;5.20;4.70;;;;;;;;;;105071;1251;61451;-66
2023/02/27 05:59:44;;;;;;;6.20;4.60;;;;;;;;;;105088;1251;60895;-67
2023/02/27 06:02:12;;;;;;;5.10;4.40;;;;;;;;;;105234;1257;60767;-67
2023/02/27 06:04:41;;;;;;;5.40;4.40;;;;;;;;;;105289;1249;60943;-66
2023/02/27 06:07:11;;;;;;;4.80;4.20;;;;;;;;;;105145;1251;60923;-66
2023/02/27 06:09:43;;;;;;;5.40;4.50;;;;;;;;;;105281;1251;60876;-66
2023/02/27 06:12:11;;;;;;;5.30;4.10;;;;;;;;;;104990;1260;60758;-65
2023/02/27 06:14:40;;;;;;;4.90;4.50;;;;;;;;;;105252;1253;60815;-63
2023/02/27 06:17:08;;;;;;;5.60;4.60;;;;;;;;;;105282;1249;60882;-62
2023/02/27 06:19:37;;;;;;;5.20;4.70;;;;;;;;;;105110;1253;60971;-63
2023/02/27 06:22:06;;;;;;;4.40;4.00;;;;;;;;;;105019;1250;60849;-65
2023/02/27 06:24:34;;;;;;;4.90;4.40;;;;;;;;;;105196;1257;60372;-65
2023/02/27 06:27:02;;;;;;;5.70;5.00;;;;;;;;;;105435;1251;60883;-65
2023/02/27 06:29:32;;;;;;;4.30;3.90;;;;;;;;;;105110;1270;60997;-66
2023/02/27 06:32:00;;;;;;;4.60;4.20;;;;;;;;;;105010;1254;60892;-65
2023/02/27 06:34:29;;;;;;;6.10;4.60;;;;;;;;;;105063;1251;60907;-65
2023/02/27 06:36:57;;;;;;;4.90;4.40;;;;;;;;;;104941;1254;60907;-66
2023/02/27 06:39:25;;;;;;;5.30;4.80;;;;;;;;;;105262;1249;61247;-66
2023/02/27 06:41:53;;;;;;;5.10;4.60;;;;;;;;;;104967;1253;61251;-66
2023/02/27 06:44:22;;;;;;;5.40;4.90;;;;;;;;;;104919;1251;60892;-64
2023/02/27 06:46:50;;;;;;;6.00;5.10;;;;;;;;;;105136;1254;60862;-65
2023/02/27 06:49:18;;;;;;;5.40;4.80;;;;;;;;;;104971;1253;60460;-64
2023/02/27 06:51:46;;;;;;;5.40;4.90;;;;;;;;;;104970;1266;60889;-66
2023/02/27 06:54:15;;;;;;;4.90;4.40;;;;;;;;;;105126;1249;60892;-66
2023/02/27 06:56:43;;;;;;;5.30;4.60;;;;;;;;;;104980;1253;60891;-67
2023/02/27 06:59:11;;;;;;;5.70;4.90;;;;;;;;;;104916;1253;60895;-66
2023/02/27 07:01:39;;;;;;;5.20;4.60;;;;;;;;;;105527;1251;60862;-67
2023/02/27 07:04:08;;;;;;;4.90;4.40;;;;;;;;;;104985;1264;60404;-67
2023/02/27 07:06:40;;;;;;;5.00;4.50;;;;;;;;;;104710;1255;60862;-66
2023/02/27 07:09:28;;;;;;;5.20;4.50;;;;;;;;;;104937;1272;60873;-68
2023/02/27 07:11:56;;;;;;;5.00;4.50;;;;;;;;;;105007;1263;60798;-67
2023/02/27 07:14:25;;;;;;;4.90;4.40;;;;;;;;;;105008;1251;60862;-66
2023/02/27 07:16:53;;;;;;;5.10;4.60;;;;;;;;;;105135;1251;61943;-68
2023/02/27 07:19:23;;;;;;;4.90;4.20;;;;;;;;;;108985;1249;58992;-67
2023/02/27 07:21:51;;;;;;;4.70;4.30;;;;;;;;;;107362;1250;60920;-66
2023/02/27 07:24:20;;;;;;;5.10;4.50;;;;;;;;;;105179;1257;60876;-65
2023/02/27 07:26:48;;;;;;;4.70;4.20;;;;;;;;;;105058;1249;60873;-65
2023/02/27 07:29:16;;;;;;;5.50;5.00;;;;;;;;;;104906;1266;60786;-65
2023/02/27 07:31:44;;;;;;;5.00;4.60;;;;;;;;;;105029;1250;60895;-66
2023/02/27 07:34:14;;;;;;;4.50;4.10;;;;;;;;;;104958;1253;60763;-66
2023/02/27 07:36:42;;;;;;;5.90;5.30;;;;;;;;;;104976;1260;62586;-66
2023/02/27 07:39:11;;;;;;;4.90;4.40;;;;;;;;;;104988;1253;60262;-67
2023/02/27 07:41:39;;;;;;;5.10;4.60;;;;;;;;;;105018;1253;61000;-66
2023/02/27 07:44:10;;;;;;;6.00;5.10;;;;;;;;;;104818;1249;61433;-64
2023/02/27 07:46:38;;;;;;;5.50;5.00;;;;;;;;;;104988;1250;61094;-64
2023/02/27 07:49:07;;;;;;;5.30;4.70;;;;;;;;;;105005;1260;60876;-65
2023/02/27 07:51:35;;;;;;;4.90;4.50;;;;;;;;;;105028;1250;60751;-65
2023/02/27 07:54:03;;;;;;;5.20;4.70;;;;;;;;;;105082;1253;60782;-68
2023/02/27 07:56:35;;;;;;;5.20;4.70;;;;;;;;;;104939;1253;60887;-68
2023/02/27 07:59:05;;;;;;;5.20;4.70;;;;;;;;;;104985;1251;60889;-67
2023/02/27 08:01:33;;;;;;;5.10;4.60;;;;;;;;;;105047;1253;60737;-67
2023/02/27 08:04:07;;;;;;;5.90;5.20;;;;;;;;;;105350;1251;60792;-66
2023/02/27 08:06:36;;;;;;;5.20;4.70;;;;;;;;;;105430;1250;60767;-67
2023/02/27 08:09:04;;;;;;;4.60;4.20;;;;;;;;;;105425;1253;61031;-67
2023/02/27 08:11:33;;;;;;;5.00;4.50;;;;;;;;;;105551;1251;61410;-68
2023/02/27 08:14:01;;;;;;;6.10;4.80;;;;;;;;;;105116;1265;60738;-68
2023/02/27 08:16:31;;;;;;;5.30;4.40;;;;;;;;;;105854;1250;60869;-67
2023/02/27 08:19:00;;;;;;;5.80;5.20;;;;;;;;;;105060;1251;60891;-68
2023/02/27 08:21:29;;;;;;;5.50;4.70;;;;;;;;;;104720;1266;60870;-67
2023/02/27 08:23:57;;;;;;;5.40;4.90;;;;;;;;;;105052;1253;60868;-69
2023/02/27 08:26:25;;;;;;;6.70;5.10;;;;;;;;;;105220;1251;60799;-65
2023/02/27 08:28:55;;;;;;;6.00;5.20;;;;;;;;;;105506;1250;61046;-66
2023/02/27 08:31:24;;;;;;;5.10;4.60;;;;;;;;;;105622;1251;61350;-67
2023/02/27 08:33:53;;;;;;;6.00;5.30;;;;;;;;;;105002;1247;62631;-67
2023/02/27 08:36:36;;;;;;;6.90;5.60;;;;;;;;;;105296;1250;60730;-67
2023/02/27 08:39:05;;;;;;;5.60;4.90;;;;;;;;;;105379;1250;60901;-68
2023/02/27 08:41:34;;;;;;;5.80;5.30;;;;;;;;;;105405;1252;60862;-67
2023/02/27 08:44:02;;;;;;;5.10;4.60;;;;;;;;;;105801;1247;60754;-68
2023/02/27 08:46:31;;;;;;;6.60;4.60;;;;;;;;;;105532;1254;60839;-67
2023/02/27 08:48:59;;;;;;;4.70;4.30;;;;;;;;;;105368;1260;61691;-68
2023/02/27 08:51:28;;;;;;;5.40;4.90;;;;;;;;;;105786;1253;61605;-68
2023/02/27 08:53:57;;;;;;;4.70;4.30;;;;;;;;;;105482;1248;61167;-66
2023/02/27 08:56:26;;;;;;;4.90;4.40;;;;;;;;;;105333;1261;61652;-66
2023/02/27 08:58:55;;;;;;;4.90;4.20;;;;;;;;;;105713;1248;62357;-66
2023/02/27 09:01:26;;;;;;;5.50;5.00;;;;;;;;;;105778;1248;61650;-67
2023/02/27 09:03:55;;;;;;;4.50;4.10;;;;;;;;;;105519;1250;61611;-66
2023/02/27 09:06:27;;;;;;;5.90;4.40;;;;;;;;;;105877;1250;61619;-66
2023/02/27 09:08:57;;;;;;;5.10;4.60;;;;;;;;;;106100;1248;61662;-67
2023/02/27 09:11:25;;;;;;;5.10;4.60;;;;;;;;;;105735;1250;61685;-66
2023/02/27 09:13:54;;;;;;;4.90;4.40;;;;;;;;;;105643;1248;61721;-66
2023/02/27 09:16:23;;;;;;;5.50;5.00;;;;;;;;;;105761;1248;61733;-64
2023/02/27 09:18:55;;;;;;;5.00;4.60;;;;;;;;;;106027;1248;61613;-69
2023/02/27 09:21:23;;;;;;;4.90;4.30;;;;;;;;;;105605;1248;61573;-66
2023/02/27 09:23:52;;;;;;;4.00;3.70;;;;;;;;;;108630;1247;62019;-67
2023/02/27 09:26:22;;;;;;;4.70;4.20;;;;;;;;;;105607;1264;61577;-67
2023/02/27 09:29:09;;;;;;;4.10;3.70;;;;;;;;;;105235;1248;61708;-67
2023/02/27 09:31:37;;;;;;;3.80;3.50;;;;;;;;;;105387;1255;61916;-66
2023/02/27 09:34:06;;;;;;;5.10;3.90;;;;;;;;;;105782;1253;61480;-67
2023/02/27 09:36:34;;;;;;;4.10;3.50;;;;;;;;;;105822;1248;61658;-66
2023/02/27 09:39:02;;;;;;;4.80;3.90;;;;;;;;;;105414;1250;62087;-66
2023/02/27 09:41:49;;;;;;;3.90;3.60;;;;;;;;;;105146;1260;61758;-67
2023/02/27 09:44:24;;;;;;;4.20;3.40;;;;;;;;;;105355;1254;61477;-66
2023/02/27 09:47:12;;;;;;;4.10;3.70;;;;;;;;;;105307;1248;61686;-67
2023/02/27 09:49:47;;;;;;;5.00;3.30;;;;;;;;;;105842;1252;61700;-67
2023/02/27 09:52:15;;;;;;;3.70;3.40;;;;;;;;;;105782;1248;61726;-66
2023/02/27 09:54:43;;;;;;;3.50;3.20;;;;;;;;;;105499;1253;61554;-66
2023/02/27 09:57:14;;;;;;;3.60;3.30;;;;;;;;;;105453;1250;61682;-65
2023/02/27 09:59:54;;;;;;;3.40;3.10;;;;;;;;;;105518;1250;61704;-71
2023/02/27 10:02:31;;;;;;;4.10;3.40;;;;;;;;;;105602;1250;61638;-66
2023/02/27 10:05:15;;;;;;;3.50;3.20;;;;;;;;;;105383;1263;61688;-67
2023/02/27 10:07:47;;;;;;;3.40;3.10;;;;;;;;;;105174;1250;61717;-66
2023/02/27 10:10:25;;;;;;;4.20;3.80;;;;;;;;;;105309;1253;61688;-64
2023/02/27 10:12:59;;;;;;;3.80;3.50;;;;;;;;;;105319;1249;61624;-65
2023/02/27 10:15:38;;;;;;;5.60;3.80;;;;;;;;;;105568;1247;61556;-66
2023/02/27 10:18:16;;;;;;;3.90;3.60;;;;;;;;;;105384;1251;61714;-64
2023/02/27 10:20:56;;;;;;;3.70;3.40;;;;;;;;;;105211;1248;61701;-70
2023/02/27 10:23:32;;;;;;;3.60;3.20;;;;;;;;;;105350;1253;61705;-70
2023/02/27 10:26:01;;;;;;;3.20;2.80;;;;;;;;;;105039;1261;61640;-66
2023/02/27 10:28:29;;;;;;;2.90;2.60;;;;;;;;;;105422;1252;61726;-69
2023/02/27 10:31:00;;;;;;;3.30;2.90;;;;;;;;;;105037;1256;61691;-70
2023/02/27 10:33:34;;;;;;;3.30;3.00;;;;;;;;;;105133;1248;61689;-69
2023/02/27 10:36:09;;;;;;;3.00;2.70;;;;;;;;;;108756;1249;60232;-68
2023/02/27 10:38:51;;;;;;;3.40;3.10;;;;;;;;;;106826;1254;60961;-68
2023/02/27 10:41:19;;;;;;;3.40;3.10;;;;;;;;;;105086;1250;61753;-68
2023/02/27 10:43:49;;;;;;;3.40;3.10;;;;;;;;;;104880;1249;61696;-69
2023/02/27 10:46:19;;;;;;;3.70;3.30;;;;;;;;;;104794;1251;61669;-68
2023/02/27 10:48:47;;;;;;;3.40;3.10;;;;;;;;;;104958;1254;61660;-69
2023/02/27 10:51:21;;;;;;;2.80;2.50;;;;;;;;;;105416;1249;61686;-66
2023/02/27 10:53:51;;;;;;;2.70;2.50;;;;;;;;;;105451;1249;61875;-70
2023/02/27 10:56:24;;;;;;;2.80;2.60;;;;;;;;;;105297;1253;61743;-70
2023/02/27 10:59:05;;;;;;;2.80;2.60;;;;;;;;;;105085;1249;61694;-70
2023/02/27 11:01:41;;;;;;;2.80;2.60;;;;;;;;;;105059;1250;61628;-71
2023/02/27 11:04:10;;;;;;;3.00;2.70;;;;;;;;;;105582;1250;61682;-70
2023/02/27 11:06:39;;;;;;;3.00;2.70;;;;;;;;;;105220;1250;61688;-69
2023/02/27 11:09:16;;;;;;;3.20;3.00;;;;;;;;;;104982;1250;61791;-71
2023/02/27 11:11:45;;;;;;;3.40;2.30;;;;;;;;;;104869;1251;61622;-70
2023/02/27 11:14:19;;;;;;;3.30;3.00;;;;;;;;;;105265;1250;61631;-70
2023/02/27 11:16:48;;;;;;;2.80;2.60;;;;;;;;;;105288;1250;61621;-71
2023/02/27 11:19:36;;;;;;;3.10;2.80;;;;;;;;;;104932;1251;61726;-70
2023/02/27 11:22:05;;;;;;;3.90;2.60;;;;;;;;;;105426;1254;61550;-71
2023/02/27 11:24:34;;;;;;;3.30;2.60;;;;;;;;;;105234;1250;61612;-72
2023/02/27 11:27:04;;;;;;;2.40;2.20;;;;;;;;;;105320;1254;61603;-69
2023/02/27 11:29:32;;;;;;;2.40;2.30;;;;;;;;;;105256;1250;61665;-72
2023/02/27 11:32:01;;;;;;;3.90;2.30;;;;;;;;;;104976;1254;61577;-69
2023/02/27 11:34:37;;;;;;;2.40;2.20;;;;;;;;;;105113;1254;61701;-68
2023/02/27 11:37:06;;;;;;;4.00;3.60;;;;;;;;;;105334;1248;61704;-70
2023/02/27 11:39:51;;;;;;;2.90;2.70;;;;;;;;;;105695;1251;61585;-68
2023/02/27 11:42:19;;;;;;;4.00;2.70;;;;;;;;;;105642;1253;61762;-71
2023/02/27 11:44:58;;;;;;;4.80;2.70;;;;;;;;;;105898;1250;61690;-71
2023/02/27 11:47:29;;;;;;;2.50;2.30;;;;;;;;;;105493;1253;61694;-68
2023/02/27 11:50:01;;;;;;;2.50;2.30;;;;;;;;;;105599;1247;61714;-63
2023/02/27 11:52:35;;;;;;;2.70;2.40;;;;;;;;;;105923;1250;62324;-65
2023/02/27 11:55:04;;;;;;;2.90;2.60;;;;;;;;;;105628;1247;61589;-69
2023/02/27 11:57:37;;;;;;;3.10;2.80;;;;;;;;;;105264;1252;61668;-68
2023/02/27 12:00:25;;;;;;;3.10;2.80;;;;;;;;;;105338;1248;61734;-67
2023/02/27 12:03:13;;;;;;;2.80;2.60;;;;;;;;;;105508;1253;61666;-69
2023/02/27 12:05:45;;;;;;;3.20;2.90;;;;;;;;;;105926;1253;61663;-67
2023/02/27 12:08:27;;;;;;;3.00;2.60;;;;;;;;;;105714;1253;61605;-66
2023/02/27 12:10:57;;;;;;;2.60;2.40;;;;;;;;;;105499;1253;61704;-68
2023/02/27 12:13:41;;;;;;;2.90;2.70;;;;;;;;;;105298;1250;61705;-69
2023/02/27 12:16:15;;;;;;;3.70;2.80;;;;;;;;;;105340;1247;61680;-66
2023/02/27 12:18:49;;;;;;;3.40;3.10;;;;;;;;;;105251;1267;61727;-67
2023/02/27 12:21:25;;;;;;;4.10;3.10;;;;;;;;;;105252;1252;61695;-67
2023/02/27 12:23:55;;;;;;;3.20;2.90;;;;;;;;;;105343;1250;61682;-67
2023/02/27 12:26:24;;;;;;;3.10;2.80;;;;;;;;;;105533;1253;61681;-67
2023/02/27 12:28:53;;;;;;;3.10;2.80;;;;;;;;;;105271;1248;61755;-68
2023/02/27 12:31:25;;;;;;;3.20;2.90;;;;;;;;;;105410;1250;61442;-67
2023/02/27 12:33:55;;;;;;;3.20;2.90;;;;;;;;;;105491;1253;61708;-68
2023/02/27 12:36:23;;;;;;;3.40;3.10;;;;;;;;;;109073;1248;59678;-68
2023/02/27 12:38:52;;;;;;;3.60;3.20;;;;;;;;;;108051;1250;61570;-67
2023/02/27 12:41:35;;;;;;;3.70;3.30;;;;;;;;;;105525;1266;61605;-69
2023/02/27 12:44:10;;;;;;;3.70;3.00;;;;;;;;;;105398;1250;61669;-69
2023/02/27 12:46:39;;;;;;;4.60;3.60;;;;;;;;;;105677;1247;61602;-68
2023/02/27 12:49:12;;;;;;;3.70;3.20;;;;;;;;;;106711;1248;61701;-67
2023/02/27 12:51:44;;;;;;;3.60;3.30;;;;;;;;;;105290;1261;61711;-67
2023/02/27 12:54:14;;;;;;;4.70;3.30;;;;;;;;;;105560;1248;61617;-68
2023/02/27 12:56:43;;;;;;;4.90;3.20;;;;;;;;;;105585;1253;61596;-65
2023/02/27 12:59:30;;;;;;;3.40;3.10;;;;;;;;;;105677;1252;61607;-67
2023/02/27 13:02:17;;;;;;;4.00;3.00;;;;;;;;;;105467;1248;61689;-69
2023/02/27 13:04:46;;;;;;;3.20;2.90;;;;;;;;;;104865;1251;61697;-65
2023/02/27 13:07:32;;;;;;;4.00;3.60;;;;;;;;;;105425;1248;61659;-63
2023/02/27 13:10:02;;;;;;;3.50;3.20;;;;;;;;;;105324;1248;61766;-67
2023/02/27 13:12:50;;;;;;;3.70;3.30;;;;;;;;;;105331;1248;61675;-66
2023/02/27 13:15:27;;;;;;;3.80;3.20;;;;;;;;;;105293;1248;61711;-66
2023/02/27 13:18:05;;;;;;;4.10;3.70;;;;;;;;;;105343;1257;61557;-66
2023/02/27 13:20:45;;;;;;;3.50;3.20;;;;;;;;;;105727;1256;61041;-64
2023/02/27 13:23:29;;;;;;;7.30;3.10;;;;;;;;;;105399;1253;61688;-66
2023/02/27 13:25:58;;;;;;;3.70;3.10;;;;;;;;;;105442;1264;61682;-66
2023/02/27 13:28:26;;;;;;;4.10;3.20;;;;;;;;;;105591;1247;61598;-65
2023/02/27 13:31:04;;;;;;;3.40;3.00;;;;;;;;;;108025;1247;61714;-65
2023/02/27 13:33:32;;;;;;;;;;;;;;;;;;105467;1259;61708;-63
2023/02/27 13:36:20;;;;;;;3.70;2.90;;;;;;;;;;105416;1248;61698;-65
2023/02/27 13:38:52;;;;;;;3.50;3.20;;;;;;;;;;105282;1250;61590;-64
2023/02/27 13:41:23;;;;;;;3.70;3.40;;;;;;;;;;105178;1271;61707;-63
2023/02/27 13:43:52;;;;;;;6.80;3.30;;;;;;;;;;105455;1250;61701;-65
2023/02/27 13:46:27;;;;;;;3.00;2.80;;;;;;;;;;105254;1254;61689;-65
2023/02/27 13:49:06;;;;;;;3.30;3.00;;;;;;;;;;105314;1248;61688;-64
2023/02/27 13:51:43;;;;;;;3.60;2.90;;;;;;;;;;105379;1253;61740;-63
2023/02/27 13:54:15;;;;;;;3.50;3.00;;;;;;;;;;105447;1252;61694;-69
2023/02/27 13:56:59;;;;;;;3.30;3.00;;;;;;;;;;105323;1248;61763;-69
2023/02/27 13:59:39;;;;;;;3.80;3.10;;;;;;;;;;105231;1254;62053;-65
2023/02/27 14:02:10;;;;;;;3.40;3.00;;;;;;;;;;105230;1248;61605;-66
2023/02/27 14:04:49;;;;;;;3.60;3.10;;;;;;;;;;105315;1253;61588;-63
2023/02/27 14:07:20;;;;;;;4.20;3.80;;;;;;;;;;104878;1266;61688;-64
2023/02/27 14:09:49;;;;;;;4.30;3.90;;;;;;;;;;105467;1248;61732;-65
2023/02/27 14:12:31;;;;;;;3.90;3.50;;;;;;;;;;105418;1248;61641;-66
2023/02/27 14:15:16;;;;;;;4.70;3.80;;;;;;;;;;104989;1253;61570;-63
2023/02/27 14:18:00;;;;;;;3.30;3.00;;;;;;;;;;105406;1260;61732;-66
2023/02/27 14:20:48;;;;;;;4.40;3.30;;;;;;;;;;105707;1248;61787;-66
2023/02/27 14:23:17;;;;;;;5.30;3.90;;;;;;;;;;105539;1252;61681;-66
2023/02/27 14:25:45;;;;;;;4.50;3.30;;;;;;;;;;105473;1248;61855;-63
2023/02/27 14:28:19;;;;;;;4.10;3.30;;;;;;;;;;105266;1248;62066;-64
2023/02/27 14:30:52;;;;;;;4.40;3.60;;;;;;;;;;105354;1248;61688;-68
2023/02/27 14:33:22;;;;;;;3.40;3.10;;;;;;;;;;104867;1256;61684;-63
2023/02/27 14:36:07;;;;;;;5.00;3.90;;;;;;;;;;105321;1266;61079;-64
2023/02/27 14:38:37;;;;;;;4.00;3.50;;;;;;;;;;106511;1247;61577;-69
2023/02/27 14:41:08;;;;;;;4.10;3.70;;;;;;;;;;106141;1247;61723;-69
2023/02/27 14:43:38;;;;;;;4.30;3.80;;;;;;;;;;105337;1260;61646;-68
2023/02/27 14:46:15;;;;;;;3.80;3.40;;;;;;;;;;105302;1253;61719;-68
2023/02/27 14:48:43;;;;;;;3.40;3.10;;;;;;;;;;105589;1252;61561;-68
2023/02/27 14:51:11;;;;;;;4.70;3.80;;;;;;;;;;104956;1254;61676;-68
2023/02/27 14:53:40;;;;;;;3.90;3.30;;;;;;;;;;105363;1252;61756;-67
2023/02/27 14:56:17;;;;;;;3.90;3.50;;;;;;;;;;105329;1253;61580;-68
2023/02/27 14:58:47;;;;;;;4.60;3.70;;;;;;;;;;105290;1250;61665;-69
2023/02/27 15:01:32;;;;;;;3.90;3.60;;;;;;;;;;104930;1255;61516;-69
2023/02/27 15:04:01;;;;;;;4.80;3.60;;;;;;;;;;105627;1268;61697;-68
2023/02/27 15:06:40;;;;;;;6.40;3.80;;;;;;;;;;105770;1248;61674;-67